Time;durP1;ratioP1;P1;durP2;ratioP2;P2;SDS_P1;SDS_P2;PMS_P1;PMS_P2;Temp;Humidity;BMP_temperature;BMP_pressure;BME280_temperature;BME280_humidity;BME280_pressure;Samples;Min_cycle;Max_cycle;Signal;HPM_P1;HPM_P2
2021/05/07 00:01:57;;;;;;;6.57;4.38;;;4.20;90.10;;;;;;5072839;28;20706;-49
2021/05/07 00:04:23;;;;;;;6.65;4.03;;;4.30;90.00;;;;;;5067910;28;20041;-48
2021/05/07 00:06:52;;;;;;;5.95;3.97;;;4.30;90.20;;;;;;5071429;28;20037;-50
2021/05/07 00:09:18;;;;;;;9.82;4.22;;;4.20;90.10;;;;;;5070472;28;20033;-48
2021/05/07 00:11:44;;;;;;;7.07;4.93;;;4.20;90.20;;;;;;5066478;28;20123;-50
2021/05/07 00:14:09;;;;;;;6.25;4.18;;;4.20;90.10;;;;;;5072795;28;20115;-48
2021/05/07 00:16:35;;;;;;;6.45;4.18;;;4.20;90.20;;;;;;5072000;28;20036;-51
2021/05/07 00:19:01;;;;;;;5.05;3.88;;;4.20;90.20;;;;;;5066046;28;20120;-49
2021/05/07 00:21:26;;;;;;;7.45;4.25;;;4.20;90.20;;;;;;5067406;28;20068;-49
2021/05/07 00:23:52;;;;;;;5.25;3.97;;;4.20;90.20;;;;;;5068712;28;20043;-51
2021/05/07 00:26:18;;;;;;;8.15;4.30;;;4.30;90.40;;;;;;5071048;28;20034;-49
2021/05/07 00:28:44;;;;;;;7.18;4.20;;;4.30;90.50;;;;;;5061540;28;20460;-51
2021/05/07 00:31:10;;;;;;;6.63;3.90;;;4.30;90.50;;;;;;5065520;28;20032;-49
2021/05/07 00:33:36;;;;;;;8.40;3.92;;;4.30;90.40;;;;;;5070626;28;20085;-52
2021/05/07 00:36:02;;;;;;;5.47;3.60;;;4.30;90.40;;;;;;5070788;28;20131;-49
2021/05/07 00:38:28;;;;;;;5.93;3.70;;;4.30;90.50;;;;;;5071551;28;20151;-49
2021/05/07 00:40:53;;;;;;;4.88;3.58;;;4.30;90.40;;;;;;5072483;28;20075;-48
2021/05/07 00:43:19;;;;;;;5.47;4.00;;;4.30;90.30;;;;;;5067477;28;20052;-48
2021/05/07 00:45:45;;;;;;;5.80;3.42;;;4.40;90.40;;;;;;5058257;28;20080;-52
2021/05/07 00:48:12;;;;;;;5.88;3.53;;;4.30;90.30;;;;;;5065695;28;20041;-49
2021/05/07 00:50:40;;;;;;;7.32;4.00;;;4.30;90.40;;;;;;5066883;28;20123;-48
2021/05/07 00:53:06;;;;;;;6.50;3.78;;;4.20;90.30;;;;;;5063958;28;20044;-49
2021/05/07 00:55:34;;;;;;;7.20;3.95;;;4.20;90.20;;;;;;5071782;28;20033;-51
2021/05/07 00:57:59;;;;;;;5.75;3.90;;;4.20;90.20;;;;;;5067735;28;20044;-49
2021/05/07 01:00:27;;;;;;;8.93;3.60;;;4.20;90.30;;;;;;5062557;28;20097;-50
2021/05/07 01:02:53;;;;;;;5.50;3.33;;;4.20;90.40;;;;;;5071779;28;20086;-49
2021/05/07 01:05:22;;;;;;;5.53;3.47;;;4.10;90.30;;;;;;5072367;28;20392;-50
2021/05/07 01:07:51;;;;;;;6.60;3.58;;;4.00;90.20;;;;;;5069351;28;20572;-50
2021/05/07 01:10:17;;;;;;;7.30;3.63;;;3.90;90.20;;;;;;5067206;28;20048;-52
2021/05/07 01:12:44;;;;;;;5.03;3.50;;;3.90;90.40;;;;;;5067767;28;20043;-50
2021/05/07 01:15:13;;;;;;;6.10;3.78;;;3.80;90.40;;;;;;5070965;28;20041;-49
2021/05/07 01:17:53;;;;;;;8.38;4.15;;;3.90;90.70;;;;;;5069784;28;20048;-50
2021/05/07 01:20:20;;;;;;;9.38;3.85;;;3.90;90.70;;;;;;5057256;28;20547;-49
2021/05/07 01:22:51;;;;;;;6.55;3.65;;;3.80;90.60;;;;;;5063538;28;20045;-49
2021/05/07 01:25:20;;;;;;;7.25;4.00;;;3.80;90.60;;;;;;5071243;28;20452;-49
2021/05/07 01:27:48;;;;;;;7.47;3.85;;;3.80;90.70;;;;;;5070891;28;20155;-50
2021/05/07 01:30:18;;;;;;;6.35;3.90;;;3.70;90.70;;;;;;5069890;28;20045;-50
2021/05/07 01:32:45;;;;;;;7.82;4.07;;;3.70;90.60;;;;;;5070952;28;20113;-49
2021/05/07 01:35:32;;;;;;;5.15;3.53;;;3.60;90.60;;;;;;5069819;28;20037;-48
2021/05/07 01:38:00;;;;;;;6.68;3.63;;;3.60;90.80;;;;;;5070709;28;20046;-48
2021/05/07 01:40:28;;;;;;;5.35;3.72;;;3.60;90.70;;;;;;5071218;28;20066;-50
2021/05/07 01:42:54;;;;;;;6.38;3.13;;;3.50;90.60;;;;;;5070883;28;20093;-49
2021/05/07 01:45:23;;;;;;;4.20;2.78;;;3.50;90.60;;;;;;5070847;28;20121;-49
2021/05/07 01:47:50;;;;;;;5.72;3.28;;;3.30;90.50;;;;;;5067113;28;20033;-50
2021/05/07 01:50:22;;;;;;;5.18;3.67;;;3.30;90.60;;;;;;5061755;28;20120;-49
2021/05/07 01:52:49;;;;;;;4.88;3.60;;;3.30;90.70;;;;;;5070914;28;20067;-52
2021/05/07 01:55:18;;;;;;;5.07;3.42;;;3.30;90.70;;;;;;5061640;28;20440;-49
2021/05/07 01:57:44;;;;;;;6.05;4.10;;;3.30;90.80;;;;;;5066987;28;20044;-49
2021/05/07 02:00:21;;;;;;;6.97;3.67;;;3.30;90.70;;;;;;5060560;28;20135;-52
2021/05/07 02:02:47;;;;;;;6.35;3.80;;;3.30;90.70;;;;;;5069452;28;20484;-49
2021/05/07 02:05:18;;;;;;;6.97;4.00;;;3.20;90.80;;;;;;5072293;28;20417;-48
2021/05/07 02:07:45;;;;;;;7.53;3.60;;;3.30;90.90;;;;;;5070089;28;20032;-49
2021/05/07 02:10:14;;;;;;;5.78;3.90;;;3.30;90.70;;;;;;5071525;28;20516;-50
2021/05/07 02:12:39;;;;;;;4.93;3.33;;;3.30;90.60;;;;;;5071291;28;20048;-50
2021/05/07 02:15:09;;;;;;;7.28;3.53;;;3.20;90.70;;;;;;5070011;28;20040;-49
2021/05/07 02:17:34;;;;;;;4.95;3.22;;;3.20;90.70;;;;;;5069989;28;20093;-49
2021/05/07 02:20:00;;;;;;;4.88;3.17;;;3.10;90.60;;;;;;5069331;28;20044;-48
2021/05/07 02:22:26;;;;;;;4.53;2.72;;;3.00;90.30;;;;;;5070551;28;20044;-49
2021/05/07 02:24:52;;;;;;;5.05;3.10;;;2.90;90.20;;;;;;5069707;28;20032;-48
2021/05/07 02:27:18;;;;;;;5.15;3.20;;;2.80;90.20;;;;;;5066799;28;20498;-53
2021/05/07 02:29:43;;;;;;;5.15;3.33;;;2.70;90.20;;;;;;5069198;28;20078;-48
2021/05/07 02:32:09;;;;;;;5.68;3.50;;;2.70;90.30;;;;;;5056821;28;20132;-52
2021/05/07 02:34:34;;;;;;;6.25;3.58;;;2.60;90.40;;;;;;5058682;28;20382;-49
2021/05/07 02:37:00;;;;;;;6.65;3.30;;;2.60;90.50;;;;;;5069853;28;20090;-48
2021/05/07 02:39:26;;;;;;;6.30;3.90;;;2.60;90.60;;;;;;5068249;28;20501;-48
2021/05/07 02:41:51;;;;;;;8.43;3.78;;;2.50;90.50;;;;;;5062441;28;20045;-49
2021/05/07 02:44:17;;;;;;;5.53;3.72;;;2.50;90.60;;;;;;5067774;28;20039;-48
2021/05/07 02:46:42;;;;;;;4.80;3.30;;;2.50;90.70;;;;;;5067902;28;20409;-48
2021/05/07 02:49:08;;;;;;;5.60;3.42;;;2.50;90.80;;;;;;5069665;28;20052;-50
2021/05/07 02:51:35;;;;;;;8.88;3.83;;;2.50;90.90;;;;;;5074168;28;20485;-51
2021/05/07 02:54:01;;;;;;;5.72;3.90;;;2.50;90.90;;;;;;5073726;28;20372;-48
2021/05/07 02:56:27;;;;;;;6.97;4.28;;;2.50;90.80;;;;;;5074263;28;20309;-49
2021/05/07 02:58:53;;;;;;;6.00;4.13;;;2.50;90.80;;;;;;5071456;28;20693;-49
2021/05/07 03:01:19;;;;;;;6.85;3.70;;;2.60;90.90;;;;;;5066711;28;20127;-50
2021/05/07 03:03:45;;;;;;;5.75;3.80;;;2.60;90.90;;;;;;5070111;28;20123;-49
2021/05/07 03:06:10;;;;;;;8.13;4.65;;;2.60;90.80;;;;;;5070335;28;20045;-48
2021/05/07 03:08:37;;;;;;;6.07;4.35;;;2.60;90.90;;;;;;5072435;28;20064;-48
2021/05/07 03:11:03;;;;;;;5.88;4.30;;;2.60;90.90;;;;;;5075812;28;20126;-49
2021/05/07 03:13:29;;;;;;;8.48;4.82;;;2.60;90.90;;;;;;5072305;28;20433;-50
2021/05/07 03:15:55;;;;;;;7.97;4.68;;;2.60;90.90;;;;;;5072814;28;20041;-51
2021/05/07 03:18:21;;;;;;;7.55;5.03;;;2.60;90.90;;;;;;5066049;28;20040;-48
2021/05/07 03:20:48;;;;;;;8.13;5.25;;;2.60;90.90;;;;;;5067206;28;20052;-49
2021/05/07 03:23:14;;;;;;;7.05;4.80;;;2.70;91.00;;;;;;5068270;28;20040;-48
2021/05/07 03:25:40;;;;;;;7.43;4.38;;;2.70;91.00;;;;;;5058590;28;20528;-48
2021/05/07 03:28:07;;;;;;;6.15;4.45;;;2.70;91.10;;;;;;5062308;28;20406;-49
2021/05/07 03:30:34;;;;;;;8.10;4.63;;;2.70;91.00;;;;;;5054052;28;20090;-49
2021/05/07 03:33:02;;;;;;;8.27;5.07;;;2.70;91.00;;;;;;5066525;28;20064;-51
2021/05/07 03:35:27;;;;;;;7.80;5.25;;;2.70;91.10;;;;;;5071549;28;20098;-49
2021/05/07 03:37:53;;;;;;;8.55;5.55;;;2.70;91.20;;;;;;5067479;28;20048;-48
2021/05/07 03:40:19;;;;;;;8.13;5.18;;;2.80;91.20;;;;;;5072609;28;20036;-51
2021/05/07 03:42:45;;;;;;;8.60;5.38;;;2.70;91.00;;;;;;5074511;28;20522;-52
2021/05/07 03:45:13;;;;;;;8.95;5.57;;;2.80;91.10;;;;;;5074073;28;20508;-49
2021/05/07 03:47:40;;;;;;;7.68;5.38;;;2.80;91.00;;;;;;5074366;28;20040;-50
2021/05/07 03:50:06;;;;;;;8.32;5.55;;;2.70;90.90;;;;;;5074107;28;20115;-52
2021/05/07 03:52:32;;;;;;;8.23;5.57;;;2.70;90.90;;;;;;5074005;28;20131;-51
2021/05/07 03:54:58;;;;;;;8.23;5.57;;;2.70;91.00;;;;;;5074102;28;20141;-51
2021/05/07 03:57:25;;;;;;;9.02;5.57;;;2.80;91.10;;;;;;5073394;28;20040;-52
2021/05/07 03:59:52;;;;;;;8.00;5.75;;;2.80;91.10;;;;;;5073201;28;20040;-52
2021/05/07 04:02:17;;;;;;;6.68;4.63;;;2.80;91.00;;;;;;5072610;28;20040;-49
2021/05/07 04:04:44;;;;;;;7.70;4.97;;;2.80;91.00;;;;;;5070864;28;21167;-50
2021/05/07 04:07:11;;;;;;;8.18;5.53;;;2.70;90.90;;;;;;5060393;28;20036;-51
2021/05/07 04:09:40;;;;;;;7.53;5.18;;;2.70;91.00;;;;;;5071837;28;20098;-50
2021/05/07 04:14:58;;;;;;;6.75;4.13;;;2.60;91.00;;;;;;5062041;28;20056;-52
2021/05/07 04:17:24;;;;;;;6.90;4.50;;;2.60;90.80;;;;;;5066967;28;20040;-53
2021/05/07 04:19:49;;;;;;;8.98;4.93;;;2.50;90.70;;;;;;5070515;28;20032;-50
2021/05/07 04:22:15;;;;;;;7.72;4.57;;;2.40;90.70;;;;;;5072626;28;20040;-51
2021/05/07 04:24:40;;;;;;;7.15;4.82;;;2.40;90.80;;;;;;5060880;28;20089;-52
2021/05/07 04:27:06;;;;;;;9.07;4.45;;;2.40;90.80;;;;;;5072196;28;20036;-52
2021/05/07 04:29:32;;;;;;;8.55;5.50;;;2.40;90.90;;;;;;5072124;28;20452;-51
2021/05/07 04:31:59;;;;;;;10.35;4.75;;;2.30;90.90;;;;;;5070933;28;20062;-53
2021/05/07 04:34:25;;;;;;;6.55;4.28;;;2.30;90.90;;;;;;5070791;28;20076;-51
2021/05/07 04:36:51;;;;;;;6.22;3.95;;;2.30;90.90;;;;;;5065873;28;20486;-49
2021/05/07 04:39:17;;;;;;;8.15;4.75;;;2.30;90.90;;;;;;5064840;28;20173;-52
2021/05/07 04:41:43;;;;;;;8.93;5.00;;;2.30;90.80;;;;;;5049336;28;20116;-52
2021/05/07 04:44:09;;;;;;;7.63;4.75;;;2.30;90.80;;;;;;5061188;28;20175;-52
2021/05/07 04:46:34;;;;;;;7.47;5.32;;;2.30;90.90;;;;;;5071939;28;20476;-50
2021/05/07 04:49:00;;;;;;;7.82;5.20;;;2.40;91.00;;;;;;5072817;28;20049;-52
2021/05/07 04:51:26;;;;;;;7.20;5.10;;;2.50;90.90;;;;;;5072750;28;20036;-52
2021/05/07 04:53:51;;;;;;;7.78;5.32;;;2.50;90.90;;;;;;5073187;28;20047;-52
2021/05/07 04:56:18;;;;;;;9.43;6.43;;;2.60;91.10;;;;;;5069556;28;20051;-52
2021/05/07 04:58:43;;;;;;;13.85;6.72;;;2.70;91.10;;;;;;5052184;28;20036;-52
2021/05/07 05:01:09;;;;;;;10.40;7.22;;;2.80;91.10;;;;;;5067667;28;20051;-50
2021/05/07 05:03:35;;;;;;;10.55;6.32;;;2.90;91.00;;;;;;5072377;28;20489;-52
2021/05/07 05:06:00;;;;;;;10.65;6.63;;;3.00;91.00;;;;;;5072026;28;20036;-51
2021/05/07 05:08:27;;;;;;;12.00;7.13;;;3.00;91.00;;;;;;5071623;28;20047;-51
2021/05/07 05:10:56;;;;;;;7.60;5.05;;;3.10;91.30;;;;;;5071969;28;20546;-52
2021/05/07 05:13:23;;;;;;;6.93;4.72;;;3.10;91.10;;;;;;5072185;28;20591;-51
2021/05/07 05:15:51;;;;;;;9.20;5.68;;;3.10;90.70;;;;;;5072157;28;20037;-52
2021/05/07 05:18:25;;;;;;;8.65;6.00;;;3.10;91.10;;;;;;5053194;28;20040;-52
2021/05/07 05:20:59;;;;;;;9.00;7.00;;;3.10;91.20;;;;;;5072301;28;20054;-51
2021/05/07 05:23:26;;;;;;;10.35;6.55;;;3.20;91.50;;;;;;5062354;28;20032;-52
2021/05/07 05:25:53;;;;;;;6.93;5.18;;;3.20;92.00;;;;;;5072253;28;20538;-50
2021/05/07 05:28:19;;;;;;;7.25;5.20;;;3.30;91.90;;;;;;5070465;28;20425;-53
2021/05/07 05:30:46;;;;;;;8.00;5.07;;;3.40;92.00;;;;;;5072267;28;20083;-49
2021/05/07 05:33:12;;;;;;;6.40;4.38;;;3.40;91.90;;;;;;5071804;28;20043;-49
2021/05/07 05:35:38;;;;;;;6.45;4.40;;;3.50;91.80;;;;;;5068616;28;20045;-52
2021/05/07 05:38:04;;;;;;;6.18;4.35;;;3.60;91.70;;;;;;5061735;28;20043;-52
2021/05/07 05:40:30;;;;;;;8.20;4.45;;;3.60;91.60;;;;;;5061645;28;20063;-52
2021/05/07 05:42:56;;;;;;;7.47;4.13;;;3.70;91.70;;;;;;5058124;28;20037;-49
2021/05/07 05:45:24;;;;;;;5.13;3.70;;;3.70;91.50;;;;;;5058130;28;20032;-51
2021/05/07 05:48:04;;;;;;;7.07;3.80;;;3.70;91.40;;;;;;5055553;28;20047;-51
2021/05/07 05:50:31;;;;;;;5.63;3.33;;;3.90;91.60;;;;;;5057733;28;20037;-52
2021/05/07 05:52:57;;;;;;;4.70;3.30;;;4.10;91.20;;;;;;5075648;28;20043;-52
2021/05/07 05:55:23;;;;;;;5.57;3.33;;;4.40;90.90;;;;;;5056239;28;20025;-52
2021/05/07 05:57:51;;;;;;;5.25;2.90;;;4.50;90.40;;;;;;5063465;28;20049;-48
2021/05/07 06:00:17;;;;;;;6.35;3.00;;;4.60;90.40;;;;;;5067179;28;20044;-51
2021/05/07 06:02:43;;;;;;;4.00;3.00;;;4.60;90.60;;;;;;5068015;28;20037;-50
2021/05/07 06:05:11;;;;;;;4.65;2.85;;;4.60;90.50;;;;;;5064007;28;20431;-51
2021/05/07 06:07:38;;;;;;;5.28;2.97;;;4.70;90.50;;;;;;5065645;28;20062;-50
2021/05/07 06:10:06;;;;;;;3.63;2.60;;;5.00;90.30;;;;;;5067260;28;20044;-47
2021/05/07 06:12:33;;;;;;;3.90;2.53;;;5.70;89.50;;;;;;5058620;28;20072;-50
2021/05/07 06:14:59;;;;;;;4.53;2.95;;;6.50;86.60;;;;;;5065258;28;20044;-52
2021/05/07 06:17:25;;;;;;;5.93;2.90;;;6.80;84.70;;;;;;5039218;28;20059;-49
2021/05/07 06:19:51;;;;;;;6.22;3.10;;;6.70;84.20;;;;;;5062642;28;20040;-51
2021/05/07 06:22:17;;;;;;;4.90;3.30;;;6.50;84.70;;;;;;5060855;28;20040;-49
2021/05/07 06:24:42;;;;;;;4.40;3.45;;;6.30;85.40;;;;;;5063838;28;20155;-51
2021/05/07 06:27:08;;;;;;;6.07;3.38;;;6.30;86.40;;;;;;5040618;28;20037;-50
2021/05/07 06:29:34;;;;;;;4.57;3.33;;;6.30;86.90;;;;;;5059544;28;20158;-50
2021/05/07 06:32:00;;;;;;;3.78;3.00;;;6.50;87.60;;;;;;5050647;28;20089;-51
2021/05/07 06:34:26;;;;;;;4.43;3.10;;;6.60;87.20;;;;;;5058946;28;20093;-51
2021/05/07 06:36:52;;;;;;;5.30;2.65;;;6.70;87.10;;;;;;5073943;28;20051;-54
2021/05/07 06:39:18;;;;;;;5.18;2.60;;;6.90;86.90;;;;;;5056342;28;20048;-51
2021/05/07 06:41:43;;;;;;;4.43;2.35;;;7.00;85.80;;;;;;5058015;28;20417;-49
2021/05/07 06:44:09;;;;;;;3.35;2.25;;;7.10;85.50;;;;;;5057785;28;20076;-49
2021/05/07 06:46:35;;;;;;;3.38;1.95;;;7.20;84.30;;;;;;5055543;28;20094;-52
2021/05/07 06:49:01;;;;;;;2.80;2.00;;;7.30;83.90;;;;;;5058304;28;20449;-51
2021/05/07 06:51:27;;;;;;;2.97;1.90;;;7.30;83.10;;;;;;5039546;28;20055;-48
2021/05/07 06:53:54;;;;;;;2.83;1.80;;;7.30;83.40;;;;;;5059213;28;20100;-51
2021/05/07 06:56:22;;;;;;;2.78;1.80;;;7.40;83.00;;;;;;5055568;28;20091;-51
2021/05/07 06:58:49;;;;;;;5.13;2.25;;;7.40;82.20;;;;;;5073338;28;20037;-51
2021/05/07 07:01:15;;;;;;;4.22;2.00;;;7.40;81.60;;;;;;5068845;28;20033;-52
2021/05/07 07:03:41;;;;;;;3.28;2.30;;;7.40;82.00;;;;;;5067072;28;20167;-53
2021/05/07 07:06:08;;;;;;;2.10;1.77;;;7.40;81.70;;;;;;5082894;28;20040;-50
2021/05/07 07:08:33;;;;;;;3.05;2.00;;;7.50;81.50;;;;;;5066477;28;20451;-49
2021/05/07 07:10:59;;;;;;;3.88;2.00;;;7.60;81.80;;;;;;5067721;28;20044;-50
2021/05/07 07:13:26;;;;;;;3.35;2.60;;;7.70;81.00;;;;;;5064141;28;20085;-50
2021/05/07 07:15:51;;;;;;;2.95;2.05;;;7.90;81.00;;;;;;5064657;28;20031;-49
2021/05/07 07:18:20;;;;;;;3.88;2.20;;;8.00;79.50;;;;;;5066949;28;20123;-51
2021/05/07 07:20:48;;;;;;;4.40;2.35;;;8.10;80.20;;;;;;5062471;28;20037;-51
2021/05/07 07:23:15;;;;;;;4.60;2.40;;;8.20;79.70;;;;;;5067211;28;20097;-51
2021/05/07 07:25:44;;;;;;;4.45;2.70;;;8.30;78.10;;;;;;5067287;28;20063;-50
2021/05/07 07:28:11;;;;;;;5.60;2.83;;;8.50;78.70;;;;;;5033354;28;20465;-49
2021/05/07 07:30:37;;;;;;;4.95;2.40;;;8.60;78.50;;;;;;5063234;28;20036;-52
2021/05/07 07:33:03;;;;;;;4.00;2.60;;;8.70;78.00;;;;;;5069984;28;20093;-52
2021/05/07 07:35:28;;;;;;;6.95;2.80;;;8.80;77.50;;;;;;5071829;28;20032;-56
2021/05/07 07:37:56;;;;;;;6.53;2.75;;;9.00;77.00;;;;;;5070724;28;20036;-56
2021/05/07 07:40:22;;;;;;;3.13;2.28;;;9.10;76.80;;;;;;5056250;28;20504;-55
2021/05/07 07:42:51;;;;;;;6.75;2.40;;;9.20;75.40;;;;;;5071487;28;20695;-53
2021/05/07 07:45:17;;;;;;;4.32;2.50;;;9.30;74.20;;;;;;5061723;28;20041;-48
2021/05/07 07:47:43;;;;;;;6.05;2.50;;;9.30;73.80;;;;;;5060937;28;20040;-48
2021/05/07 07:50:11;;;;;;;7.00;2.60;;;9.30;73.00;;;;;;5065347;28;20044;-57
2021/05/07 07:52:38;;;;;;;4.85;2.10;;;9.30;71.60;;;;;;5051123;28;20045;-52
2021/05/07 07:55:07;;;;;;;3.38;2.08;;;9.30;70.80;;;;;;5075347;28;20036;-52
2021/05/07 07:57:37;;;;;;;5.57;2.50;;;9.40;70.90;;;;;;5059629;28;20094;-54
2021/05/07 08:00:05;;;;;;;6.00;2.63;;;9.50;71.80;;;;;;5067964;28;20401;-55
2021/05/07 08:02:32;;;;;;;4.95;2.28;;;9.60;72.30;;;;;;5059076;28;20073;-55
2021/05/07 08:04:58;;;;;;;3.65;2.10;;;9.80;72.20;;;;;;5043268;28;20076;-57
2021/05/07 08:07:24;;;;;;;4.57;2.72;;;10.00;69.70;;;;;;5055149;28;20091;-55
2021/05/07 08:09:50;;;;;;;6.40;2.60;;;10.10;70.60;;;;;;5066139;28;20041;-55
2021/05/07 08:12:15;;;;;;;5.82;2.13;;;10.10;71.10;;;;;;5070045;28;20120;-51
2021/05/07 08:14:41;;;;;;;5.43;2.80;;;10.00;70.50;;;;;;5062117;28;20108;-54
2021/05/07 08:17:08;;;;;;;5.72;2.60;;;10.10;70.20;;;;;;5065035;28;20128;-49
2021/05/07 08:19:34;;;;;;;6.22;2.20;;;9.90;70.20;;;;;;5064240;28;20040;-54
2021/05/07 08:22:01;;;;;;;5.30;2.40;;;9.80;68.30;;;;;;5063858;28;20094;-54
2021/05/07 08:24:26;;;;;;;6.10;2.20;;;9.50;68.10;;;;;;5061979;28;20063;-54
2021/05/07 08:26:52;;;;;;;4.00;2.30;;;9.30;68.90;;;;;;5064597;28;20037;-53
2021/05/07 08:29:18;;;;;;;5.65;2.13;;;9.10;69.20;;;;;;5060492;28;20039;-52
2021/05/07 08:31:49;;;;;;;5.32;2.30;;;9.10;69.30;;;;;;5061906;28;20128;-54
2021/05/07 08:34:16;;;;;;;6.32;2.35;;;9.00;70.00;;;;;;5069452;28;20071;-53
2021/05/07 08:36:42;;;;;;;5.25;2.42;;;9.10;70.30;;;;;;5055501;28;20033;-52
2021/05/07 08:39:07;;;;;;;5.55;2.20;;;9.20;70.20;;;;;;5059034;28;20033;-52
2021/05/07 08:41:33;;;;;;;4.38;2.17;;;9.30;69.40;;;;;;5056958;28;20025;-52
2021/05/07 08:43:59;;;;;;;3.92;2.40;;;9.40;69.60;;;;;;5060473;28;20120;-54
2021/05/07 08:46:25;;;;;;;4.78;2.30;;;9.60;70.30;;;;;;5060775;28;20043;-55
2021/05/07 08:48:52;;;;;;;3.97;2.13;;;9.80;67.80;;;;;;5063797;28;20076;-53
2021/05/07 08:51:19;;;;;;;5.65;2.08;;;10.00;67.40;;;;;;5064785;28;20036;-54
2021/05/07 08:53:45;;;;;;;5.72;2.13;;;10.20;67.40;;;;;;5056743;28;20040;-53
2021/05/07 08:56:12;;;;;;;3.88;2.33;;;10.30;66.60;;;;;;5049630;28;20057;-53
2021/05/07 08:58:38;;;;;;;4.88;2.38;;;10.50;65.70;;;;;;5054606;28;20048;-56
2021/05/07 09:01:04;;;;;;;3.30;1.33;;;10.50;65.40;;;;;;5054012;28;20048;-52
2021/05/07 09:03:42;;;;;;;2.95;1.83;;;10.50;61.20;;;;;;5061560;28;20408;-54
2021/05/07 09:06:18;;;;;;;2.90;1.60;;;10.10;60.00;;;;;;5066967;28;20155;-56
2021/05/07 09:08:45;;;;;;;2.47;1.48;;;10.00;61.90;;;;;;5067553;28;20048;-56
2021/05/07 09:11:12;;;;;;;2.75;1.15;;;10.10;61.80;;;;;;5060934;28;20049;-53
2021/05/07 09:13:37;;;;;;;2.63;1.17;;;10.20;60.00;;;;;;5072313;28;20045;-56
2021/05/07 09:16:09;;;;;;;3.72;1.40;;;10.40;60.50;;;;;;5072735;28;20041;-54
2021/05/07 09:18:49;;;;;;;3.58;1.60;;;10.50;59.90;;;;;;5067484;28;20107;-49
2021/05/07 09:21:16;;;;;;;5.13;2.30;;;10.60;60.40;;;;;;5071230;28;20033;-52
2021/05/07 09:23:44;;;;;;;5.15;2.25;;;10.90;63.40;;;;;;5067318;28;20113;-55
2021/05/07 09:26:10;;;;;;;7.78;1.70;;;11.00;63.20;;;;;;5072171;28;20044;-55
2021/05/07 09:28:36;;;;;;;4.47;1.80;;;10.90;62.10;;;;;;5071051;28;20055;-55
2021/05/07 09:31:19;;;;;;;3.22;1.50;;;10.60;59.80;;;;;;5071687;28;20040;-56
2021/05/07 09:33:53;;;;;;;4.75;1.60;;;10.50;60.40;;;;;;5064071;28;20040;-54
2021/05/07 09:36:24;;;;;;;5.70;1.92;;;10.60;61.00;;;;;;5056010;28;20048;-54
2021/05/07 09:38:50;;;;;;;3.35;1.75;;;10.70;61.40;;;;;;5069959;28;20044;-54
2021/05/07 09:41:18;;;;;;;5.15;1.65;;;10.80;61.40;;;;;;5083347;28;20611;-49
2021/05/07 09:43:43;;;;;;;2.65;1.10;;;11.00;59.90;;;;;;5065678;28;20041;-49
2021/05/07 09:46:09;;;;;;;2.78;1.30;;;11.00;57.70;;;;;;5070244;28;20048;-54
2021/05/07 09:48:39;;;;;;;3.63;1.45;;;10.90;55.70;;;;;;5051901;28;20029;-53
2021/05/07 09:51:06;;;;;;;4.18;1.30;;;11.00;57.00;;;;;;5057672;28;20044;-56
2021/05/07 09:53:36;;;;;;;3.25;1.08;;;11.20;57.40;;;;;;5072727;28;20044;-55
2021/05/07 09:56:16;;;;;;;2.13;1.33;;;11.30;57.70;;;;;;5072119;28;20090;-53
2021/05/07 09:58:43;;;;;;;2.00;1.30;;;11.50;56.60;;;;;;5070431;28;20477;-51
2021/05/07 10:01:16;;;;;;;2.58;1.40;;;11.60;55.40;;;;;;5072242;28;20075;-52
2021/05/07 10:03:41;;;;;;;4.35;1.45;;;11.50;55.70;;;;;;5071844;28;20090;-53
2021/05/07 10:06:10;;;;;;;2.67;1.45;;;11.50;57.20;;;;;;5070817;28;20068;-55
2021/05/07 10:08:44;;;;;;;4.30;1.30;;;11.50;58.90;;;;;;5056860;28;20447;-52
2021/05/07 10:11:11;;;;;;;4.47;1.42;;;11.50;57.60;;;;;;5063872;28;20408;-50
2021/05/07 10:13:38;;;;;;;2.53;1.40;;;11.40;57.20;;;;;;5064349;28;20045;-52
2021/05/07 10:16:08;;;;;;;3.38;1.55;;;11.40;56.00;;;;;;5062978;28;20097;-53
2021/05/07 10:18:36;;;;;;;2.10;1.30;;;11.40;57.00;;;;;;5068735;28;20037;-50
2021/05/07 10:21:09;;;;;;;2.72;1.40;;;11.50;56.40;;;;;;5067449;28;20535;-53
2021/05/07 10:23:36;;;;;;;4.40;1.38;;;11.50;56.10;;;;;;5061751;28;20044;-55
2021/05/07 10:26:07;;;;;;;3.40;1.60;;;11.70;56.50;;;;;;5063913;28;20071;-52
2021/05/07 10:28:51;;;;;;;3.45;1.48;;;11.80;56.20;;;;;;5062435;28;20048;-49
2021/05/07 10:31:19;;;;;;;4.20;1.48;;;11.90;57.40;;;;;;5054873;28;20497;-54
2021/05/07 10:33:58;;;;;;;7.38;2.10;;;11.70;58.30;;;;;;5062369;28;20098;-55
2021/05/07 10:36:40;;;;;;;4.82;1.60;;;11.40;58.70;;;;;;5060071;28;20115;-55
2021/05/07 10:39:35;;;;;;;4.63;1.58;;;11.20;58.10;;;;;;5059308;28;20048;-56
2021/05/07 10:42:02;;;;;;;2.42;1.10;;;11.20;59.00;;;;;;5035421;28;20498;-56
2021/05/07 10:44:41;;;;;;;4.05;1.50;;;11.30;59.30;;;;;;5060946;28;20048;-56
2021/05/07 10:47:09;;;;;;;2.92;1.30;;;11.40;57.30;;;;;;5055588;28;20041;-56
2021/05/07 10:49:37;;;;;;;12.70;2.03;;;11.60;59.30;;;;;;5058783;28;20048;-50
2021/05/07 10:52:06;;;;;;;3.60;1.45;;;11.70;58.80;;;;;;5066194;28;20408;-53
2021/05/07 10:54:55;;;;;;;4.22;1.50;;;11.60;58.50;;;;;;5060539;28;20500;-53
2021/05/07 10:57:28;;;;;;;2.72;1.50;;;11.40;56.20;;;;;;5056059;28;20037;-51
2021/05/07 10:59:58;;;;;;;1.13;1.02;;;11.30;57.30;;;;;;5057018;28;20545;-54
2021/05/07 11:02:25;;;;;;;3.20;1.27;;;11.30;58.00;;;;;;5060301;28;20045;-53
2021/05/07 11:04:51;;;;;;;7.60;1.58;;;11.60;57.30;;;;;;5054512;28;20033;-53
2021/05/07 11:07:27;;;;;;;2.95;1.30;;;11.80;57.40;;;;;;5069166;28;20044;-52
2021/05/07 11:10:11;;;;;;;1.95;1.10;;;11.80;56.60;;;;;;5074367;28;20037;-56
2021/05/07 11:12:42;;;;;;;1.35;0.90;;;11.80;57.00;;;;;;5060400;28;20075;-56
2021/05/07 11:15:17;;;;;;;3.65;1.20;;;12.00;56.00;;;;;;5075064;28;20044;-51
2021/05/07 11:17:49;;;;;;;2.30;1.08;;;12.20;54.90;;;;;;5073650;28;20496;-53
2021/05/07 11:20:14;;;;;;;3.50;0.98;;;12.20;53.30;;;;;;5074168;28;20039;-51
2021/05/07 11:22:40;;;;;;;2.70;1.20;;;12.00;54.20;;;;;;5070241;28;20033;-52
2021/05/07 11:25:07;;;;;;;3.97;1.38;;;11.90;54.70;;;;;;5067761;28;20116;-53
2021/05/07 11:27:33;;;;;;;2.88;1.00;;;12.00;55.70;;;;;;5067608;28;20037;-52
2021/05/07 11:29:59;;;;;;;2.22;1.15;;;11.90;54.60;;;;;;5062136;28;20043;-56
2021/05/07 11:32:25;;;;;;;1.85;1.10;;;11.90;54.50;;;;;;5080306;28;20100;-56
2021/05/07 11:34:57;;;;;;;1.15;0.90;;;12.00;54.70;;;;;;5059270;28;20044;-51
2021/05/07 11:40:14;;;;;;;4.38;1.23;;;12.30;54.90;;;;;;5793500;22;20079;-53
2021/05/07 11:42:41;;;;;;;2.08;1.10;;;12.40;54.10;;;;;;5042434;28;20124;-54
2021/05/07 11:45:27;;;;;;;3.75;0.90;;;12.50;53.00;;;;;;5058746;28;20065;-51
2021/05/07 11:47:54;;;;;;;1.67;1.23;;;12.50;52.60;;;;;;5069172;28;20044;-53
2021/05/07 11:50:21;;;;;;;2.17;1.02;;;12.70;53.20;;;;;;5066641;28;20453;-53
2021/05/07 11:52:49;;;;;;;2.17;1.15;;;12.50;51.40;;;;;;5049311;28;20036;-53
2021/05/07 11:55:18;;;;;;;1.48;1.00;;;12.30;51.00;;;;;;5068736;28;20041;-54
2021/05/07 11:58:05;;;;;;;2.47;1.20;;;12.10;51.50;;;;;;5051199;28;20044;-54
2021/05/07 12:00:32;;;;;;;3.13;1.15;;;12.00;51.80;;;;;;5069723;28;20385;-53
2021/05/07 12:03:03;;;;;;;2.50;1.20;;;11.70;52.20;;;;;;5044802;28;20126;-54
2021/05/07 12:05:31;;;;;;;1.95;1.10;;;11.60;54.20;;;;;;5033531;28;20033;-54
2021/05/07 12:07:57;;;;;;;3.47;1.30;;;11.50;55.50;;;;;;5067651;28;20037;-55
2021/05/07 12:10:24;;;;;;;6.70;1.45;;;11.60;56.00;;;;;;5067188;28;20546;-55
2021/05/07 12:12:54;;;;;;;4.95;1.38;;;11.60;56.40;;;;;;5067743;28;20036;-51
2021/05/07 12:15:22;;;;;;;2.03;1.30;;;11.60;55.00;;;;;;5056856;28;20043;-53
2021/05/07 12:17:50;;;;;;;2.65;1.45;;;11.60;55.40;;;;;;5058353;28;20064;-55
2021/05/07 12:20:20;;;;;;;4.25;1.40;;;11.50;55.60;;;;;;5049763;28;20040;-54
2021/05/07 12:22:49;;;;;;;3.45;1.33;;;11.40;54.70;;;;;;5061194;28;20144;-54
2021/05/07 12:25:17;;;;;;;2.35;1.30;;;11.50;52.80;;;;;;5067381;28;20127;-55
2021/05/07 12:27:44;;;;;;;4.15;1.10;;;11.70;51.90;;;;;;5070976;28;20037;-55
2021/05/07 12:30:32;;;;;;;4.00;1.30;;;11.90;49.90;;;;;;5070741;28;20080;-55
2021/05/07 12:33:04;;;;;;;3.10;1.30;;;12.00;50.10;;;;;;5053404;28;20066;-55
2021/05/07 12:35:42;;;;;;;3.33;1.53;;;12.10;49.20;;;;;;5070225;28;20579;-55
2021/05/07 12:38:29;;;;;;;5.72;1.33;;;12.40;50.10;;;;;;5053045;28;20052;-52
2021/05/07 12:41:07;;;;;;;2.25;1.48;;;12.50;51.50;;;;;;5064354;28;20040;-55
2021/05/07 12:43:42;;;;;;;3.08;1.50;;;12.60;53.20;;;;;;5067207;28;20040;-52
2021/05/07 12:46:10;;;;;;;2.72;1.30;;;12.80;51.00;;;;;;5068389;28;20045;-53
2021/05/07 12:48:39;;;;;;;1.90;1.30;;;12.70;49.80;;;;;;5033459;28;20047;-53
2021/05/07 12:51:07;;;;;;;2.08;1.40;;;12.70;51.00;;;;;;5071711;28;20555;-54
2021/05/07 12:53:34;;;;;;;3.55;1.40;;;12.70;52.00;;;;;;5066765;28;20450;-55
2021/05/07 12:56:00;;;;;;;3.22;1.50;;;12.80;52.00;;;;;;5071703;28;20036;-55
2021/05/07 12:58:26;;;;;;;3.40;1.80;;;12.70;51.00;;;;;;5036446;28;20040;-52
2021/05/07 13:00:53;;;;;;;2.47;1.40;;;12.80;51.20;;;;;;5071567;28;20470;-53
2021/05/07 13:03:20;;;;;;;2.33;1.58;;;12.80;52.40;;;;;;5069866;28;20076;-54